sensor_id;sensor_type;location;lat;lon;timestamp;P1;durP1;ratioP1;P2;durP2;ratioP2
3149;SDS011;32503;47.748;8.960;2022-11-20T00:00:19;2.30;;;2.20;;
3149;SDS011;32503;47.748;8.960;2022-11-20T00:02:46;2.50;;;2.30;;
3149;SDS011;32503;47.748;8.960;2022-11-20T00:05:13;3.50;;;3.13;;
3149;SDS011;32503;47.748;8.960;2022-11-20T00:07:41;3.40;;;3.20;;
3149;SDS011;32503;47.748;8.960;2022-11-20T00:10:08;2.03;;;1.93;;
3149;SDS011;32503;47.748;8.960;2022-11-20T00:12:36;2.77;;;2.57;;
3149;SDS011;32503;47.748;8.960;2022-11-20T00:15:03;2.60;;;2.40;;
3149;SDS011;32503;47.748;8.960;2022-11-20T00:17:30;2.70;;;2.60;;
3149;SDS011;32503;47.748;8.960;2022-11-20T00:19:57;2.70;;;2.50;;
3149;SDS011;32503;47.748;8.960;2022-11-20T00:22:24;3.23;;;2.43;;
3149;SDS011;32503;47.748;8.960;2022-11-20T00:24:53;2.73;;;2.53;;
3149;SDS011;32503;47.748;8.960;2022-11-20T00:27:22;3.00;;;2.80;;
3149;SDS011;32503;47.748;8.960;2022-11-20T00:29:49;2.87;;;2.67;;
3149;SDS011;32503;47.748;8.960;2022-11-20T00:32:16;3.00;;;2.80;;
3149;SDS011;32503;47.748;8.960;2022-11-20T00:34:44;2.80;;;2.63;;
3149;SDS011;32503;47.748;8.960;2022-11-20T00:37:11;3.30;;;3.10;;
3149;SDS011;32503;47.748;8.960;2022-11-20T00:39:38;2.70;;;2.50;;
3149;SDS011;32503;47.748;8.960;2022-11-20T00:42:06;3.50;;;3.27;;
3149;SDS011;32503;47.748;8.960;2022-11-20T00:44:33;3.43;;;3.23;;
3149;SDS011;32503;47.748;8.960;2022-11-20T00:47:00;3.63;;;3.43;;
3149;SDS011;32503;47.748;8.960;2022-11-20T00:49:27;3.17;;;2.97;;
3149;SDS011;32503;47.748;8.960;2022-11-20T00:51:54;6.07;;;3.30;;
3149;SDS011;32503;47.748;8.960;2022-11-20T00:54:21;4.00;;;3.70;;
3149;SDS011;32503;47.748;8.960;2022-11-20T00:56:48;4.27;;;3.90;;
3149;SDS011;32503;47.748;8.960;2022-11-20T00:59:16;3.20;;;3.00;;
3149;SDS011;32503;47.748;8.960;2022-11-20T01:01:44;3.60;;;3.30;;
3149;SDS011;32503;47.748;8.960;2022-11-20T01:04:11;5.50;;;3.70;;
3149;SDS011;32503;47.748;8.960;2022-11-20T01:06:38;3.47;;;3.17;;
3149;SDS011;32503;47.748;8.960;2022-11-20T01:09:06;4.00;;;3.70;;
3149;SDS011;32503;47.748;8.960;2022-11-20T01:11:38;3.33;;;3.03;;
3149;SDS011;32503;47.748;8.960;2022-11-20T01:14:09;3.57;;;3.30;;
3149;SDS011;32503;47.748;8.960;2022-11-20T01:16:41;3.73;;;3.40;;
3149;SDS011;32503;47.748;8.960;2022-11-20T01:19:11;4.03;;;3.63;;
3149;SDS011;32503;47.748;8.960;2022-11-20T01:21:41;2.90;;;2.80;;
3149;SDS011;32503;47.748;8.960;2022-11-20T01:24:10;3.83;;;3.10;;
3149;SDS011;32503;47.748;8.960;2022-11-20T01:26:41;6.67;;;5.13;;
3149;SDS011;32503;47.748;8.960;2022-11-20T01:29:11;3.60;;;3.30;;
3149;SDS011;32503;47.748;8.960;2022-11-20T01:31:42;4.40;;;3.60;;
3149;SDS011;32503;47.748;8.960;2022-11-20T01:34:10;5.03;;;3.47;;
3149;SDS011;32503;47.748;8.960;2022-11-20T01:36:40;3.57;;;3.37;;
3149;SDS011;32503;47.748;8.960;2022-11-20T01:39:10;4.60;;;3.10;;
3149;SDS011;32503;47.748;8.960;2022-11-20T01:41:39;2.97;;;2.77;;
3149;SDS011;32503;47.748;8.960;2022-11-20T01:47:19;4.03;;;3.67;;
3149;SDS011;32503;47.748;8.960;2022-11-20T01:49:52;3.90;;;3.50;;
3149;SDS011;32503;47.748;8.960;2022-11-20T01:52:26;4.70;;;4.37;;
3149;SDS011;32503;47.748;8.960;2022-11-20T01:55:00;3.33;;;3.13;;
3149;SDS011;32503;47.748;8.960;2022-11-20T01:57:31;6.20;;;4.30;;
3149;SDS011;32503;47.748;8.960;2022-11-20T02:00:03;3.10;;;2.83;;
3149;SDS011;32503;47.748;8.960;2022-11-20T02:02:35;4.30;;;4.00;;
3149;SDS011;32503;47.748;8.960;2022-11-20T02:05:08;4.37;;;4.00;;
3149;SDS011;32503;47.748;8.960;2022-11-20T02:07:43;4.40;;;4.00;;
3149;SDS011;32503;47.748;8.960;2022-11-20T02:10:11;3.77;;;3.47;;
3149;SDS011;32503;47.748;8.960;2022-11-20T02:12:38;3.90;;;3.63;;
3149;SDS011;32503;47.748;8.960;2022-11-20T02:15:22;3.70;;;3.40;;
3149;SDS011;32503;47.748;8.960;2022-11-20T02:17:51;3.93;;;3.60;;
3149;SDS011;32503;47.748;8.960;2022-11-20T02:20:19;3.67;;;3.37;;
3149;SDS011;32503;47.748;8.960;2022-11-20T02:22:47;3.87;;;3.57;;
3149;SDS011;32503;47.748;8.960;2022-11-20T02:25:22;4.37;;;4.07;;
3149;SDS011;32503;47.748;8.960;2022-11-20T02:27:52;5.23;;;3.67;;
3149;SDS011;32503;47.748;8.960;2022-11-20T02:30:19;3.60;;;3.30;;
3149;SDS011;32503;47.748;8.960;2022-11-20T02:32:46;4.67;;;3.63;;
3149;SDS011;32503;47.748;8.960;2022-11-20T02:38:10;4.70;;;4.30;;
3149;SDS011;32503;47.748;8.960;2022-11-20T02:40:39;5.10;;;4.10;;
3149;SDS011;32503;47.748;8.960;2022-11-20T02:43:06;4.57;;;4.23;;
3149;SDS011;32503;47.748;8.960;2022-11-20T02:45:33;4.90;;;4.50;;
3149;SDS011;32503;47.748;8.960;2022-11-20T02:48:00;5.90;;;4.30;;
3149;SDS011;32503;47.748;8.960;2022-11-20T02:50:27;3.53;;;3.23;;
3149;SDS011;32503;47.748;8.960;2022-11-20T02:52:54;4.67;;;3.70;;
3149;SDS011;32503;47.748;8.960;2022-11-20T02:55:21;4.87;;;4.37;;
3149;SDS011;32503;47.748;8.960;2022-11-20T02:57:50;3.63;;;3.40;;
3149;SDS011;32503;47.748;8.960;2022-11-20T03:00:17;3.97;;;3.67;;
3149;SDS011;32503;47.748;8.960;2022-11-20T03:02:45;3.80;;;3.50;;
3149;SDS011;32503;47.748;8.960;2022-11-20T03:05:13;4.40;;;3.97;;
3149;SDS011;32503;47.748;8.960;2022-11-20T03:07:40;5.60;;;3.80;;
3149;SDS011;32503;47.748;8.960;2022-11-20T03:10:07;4.33;;;3.93;;
3149;SDS011;32503;47.748;8.960;2022-11-20T03:12:35;4.13;;;3.73;;
3149;SDS011;32503;47.748;8.960;2022-11-20T03:15:04;4.53;;;4.13;;
3149;SDS011;32503;47.748;8.960;2022-11-20T03:17:32;3.83;;;3.53;;
3149;SDS011;32503;47.748;8.960;2022-11-20T03:19:59;3.37;;;3.10;;
3149;SDS011;32503;47.748;8.960;2022-11-20T03:22:28;4.37;;;3.90;;
3149;SDS011;32503;47.748;8.960;2022-11-20T03:24:55;4.20;;;3.87;;
3149;SDS011;32503;47.748;8.960;2022-11-20T03:27:22;3.90;;;3.60;;
3149;SDS011;32503;47.748;8.960;2022-11-20T03:29:49;4.33;;;4.03;;
3149;SDS011;32503;47.748;8.960;2022-11-20T03:32:18;4.07;;;3.53;;
3149;SDS011;32503;47.748;8.960;2022-11-20T03:34:45;4.27;;;3.87;;
3149;SDS011;32503;47.748;8.960;2022-11-20T03:37:12;3.77;;;3.47;;
3149;SDS011;32503;47.748;8.960;2022-11-20T03:39:39;4.67;;;3.63;;
3149;SDS011;32503;47.748;8.960;2022-11-20T03:42:06;3.43;;;3.23;;
3149;SDS011;32503;47.748;8.960;2022-11-20T03:44:54;4.70;;;3.83;;
3149;SDS011;32503;47.748;8.960;2022-11-20T03:47:22;10.40;;;5.33;;
3149;SDS011;32503;47.748;8.960;2022-11-20T03:49:49;11.93;;;8.00;;
3149;SDS011;32503;47.748;8.960;2022-11-20T03:52:16;8.87;;;5.70;;
3149;SDS011;32503;47.748;8.960;2022-11-20T03:54:44;5.13;;;4.53;;
3149;SDS011;32503;47.748;8.960;2022-11-20T03:57:10;7.70;;;5.00;;
3149;SDS011;32503;47.748;8.960;2022-11-20T03:59:37;6.67;;;5.47;;
3149;SDS011;32503;47.748;8.960;2022-11-20T04:02:04;6.80;;;4.90;;
3149;SDS011;32503;47.748;8.960;2022-11-20T04:04:33;4.67;;;4.33;;
3149;SDS011;32503;47.748;8.960;2022-11-20T04:07:00;7.40;;;4.30;;
3149;SDS011;32503;47.748;8.960;2022-11-20T04:09:27;10.20;;;4.13;;
3149;SDS011;32503;47.748;8.960;2022-11-20T04:11:54;5.30;;;3.90;;
3149;SDS011;32503;47.748;8.960;2022-11-20T04:14:22;5.67;;;4.07;;
3149;SDS011;32503;47.748;8.960;2022-11-20T04:16:49;4.60;;;3.93;;
3149;SDS011;32503;47.748;8.960;2022-11-20T04:19:16;3.67;;;3.37;;
3149;SDS011;32503;47.748;8.960;2022-11-20T04:21:44;3.23;;;3.03;;
3149;SDS011;32503;47.748;8.960;2022-11-20T04:24:12;3.03;;;2.80;;
3149;SDS011;32503;47.748;8.960;2022-11-20T04:26:39;3.20;;;3.00;;
3149;SDS011;32503;47.748;8.960;2022-11-20T04:29:06;4.23;;;3.87;;
3149;SDS011;32503;47.748;8.960;2022-11-20T04:31:36;3.10;;;2.90;;
3149;SDS011;32503;47.748;8.960;2022-11-20T04:34:04;2.83;;;2.63;;
3149;SDS011;32503;47.748;8.960;2022-11-20T04:36:33;3.80;;;3.50;;
3149;SDS011;32503;47.748;8.960;2022-11-20T04:39:02;3.77;;;3.47;;
3149;SDS011;32503;47.748;8.960;2022-11-20T04:41:31;5.50;;;3.50;;
3149;SDS011;32503;47.748;8.960;2022-11-20T04:44:01;3.40;;;3.20;;
3149;SDS011;32503;47.748;8.960;2022-11-20T04:46:31;3.00;;;2.80;;
3149;SDS011;32503;47.748;8.960;2022-11-20T04:49:00;3.97;;;3.37;;
3149;SDS011;32503;47.748;8.960;2022-11-20T04:51:27;3.67;;;3.37;;
3149;SDS011;32503;47.748;8.960;2022-11-20T04:53:55;5.60;;;4.10;;
3149;SDS011;32503;47.748;8.960;2022-11-20T04:56:24;7.97;;;7.20;;
3149;SDS011;32503;47.748;8.960;2022-11-20T04:58:51;9.50;;;8.67;;
3149;SDS011;32503;47.748;8.960;2022-11-20T05:01:19;6.80;;;6.20;;
3149;SDS011;32503;47.748;8.960;2022-11-20T05:03:47;6.77;;;6.17;;
3149;SDS011;32503;47.748;8.960;2022-11-20T05:06:16;7.67;;;7.17;;
3149;SDS011;32503;47.748;8.960;2022-11-20T05:08:45;5.37;;;4.97;;
3149;SDS011;32503;47.748;8.960;2022-11-20T05:11:14;5.43;;;5.03;;
3149;SDS011;32503;47.748;8.960;2022-11-20T05:13:44;5.70;;;5.23;;
3149;SDS011;32503;47.748;8.960;2022-11-20T05:16:12;5.53;;;5.13;;
3149;SDS011;32503;47.748;8.960;2022-11-20T05:18:41;5.57;;;5.10;;
3149;SDS011;32503;47.748;8.960;2022-11-20T05:21:09;4.43;;;4.10;;
3149;SDS011;32503;47.748;8.960;2022-11-20T05:23:37;4.87;;;4.53;;
3149;SDS011;32503;47.748;8.960;2022-11-20T05:26:05;4.30;;;3.90;;
3149;SDS011;32503;47.748;8.960;2022-11-20T05:28:34;3.83;;;3.53;;
3149;SDS011;32503;47.748;8.960;2022-11-20T05:31:06;4.63;;;4.17;;
3149;SDS011;32503;47.748;8.960;2022-11-20T05:33:35;3.77;;;3.37;;
3149;SDS011;32503;47.748;8.960;2022-11-20T05:36:02;3.90;;;2.83;;
3149;SDS011;32503;47.748;8.960;2022-11-20T05:38:30;4.03;;;3.33;;
3149;SDS011;32503;47.748;8.960;2022-11-20T05:41:02;2.70;;;2.50;;
3149;SDS011;32503;47.748;8.960;2022-11-20T05:43:31;4.13;;;3.83;;
3149;SDS011;32503;47.748;8.960;2022-11-20T05:46:00;3.67;;;3.47;;
3149;SDS011;32503;47.748;8.960;2022-11-20T05:48:28;2.93;;;2.73;;
3149;SDS011;32503;47.748;8.960;2022-11-20T05:50:56;3.73;;;3.00;;
3149;SDS011;32503;47.748;8.960;2022-11-20T05:53:24;4.63;;;3.30;;
3149;SDS011;32503;47.748;8.960;2022-11-20T05:55:57;3.47;;;3.17;;
3149;SDS011;32503;47.748;8.960;2022-11-20T05:58:25;3.30;;;3.00;;
3149;SDS011;32503;47.748;8.960;2022-11-20T06:00:53;3.37;;;3.13;;
3149;SDS011;32503;47.748;8.960;2022-11-20T06:03:20;3.97;;;3.57;;
3149;SDS011;32503;47.748;8.960;2022-11-20T06:05:49;3.40;;;3.20;;
3149;SDS011;32503;47.748;8.960;2022-11-20T06:08:15;3.40;;;3.20;;
3149;SDS011;32503;47.748;8.960;2022-11-20T06:10:43;3.47;;;3.10;;
3149;SDS011;32503;47.748;8.960;2022-11-20T06:13:10;3.40;;;2.67;;
3149;SDS011;32503;47.748;8.960;2022-11-20T06:15:37;3.07;;;2.87;;
3149;SDS011;32503;47.748;8.960;2022-11-20T06:18:04;3.30;;;3.10;;
3149;SDS011;32503;47.748;8.960;2022-11-20T06:20:31;3.93;;;3.63;;
3149;SDS011;32503;47.748;8.960;2022-11-20T06:22:59;3.40;;;3.10;;
3149;SDS011;32503;47.748;8.960;2022-11-20T06:25:26;3.17;;;2.87;;
3149;SDS011;32503;47.748;8.960;2022-11-20T06:27:53;4.80;;;2.97;;
3149;SDS011;32503;47.748;8.960;2022-11-20T06:30:20;3.67;;;3.37;;
3149;SDS011;32503;47.748;8.960;2022-11-20T06:32:47;2.80;;;2.60;;
3149;SDS011;32503;47.748;8.960;2022-11-20T06:35:14;3.43;;;3.13;;
3149;SDS011;32503;47.748;8.960;2022-11-20T06:37:41;4.20;;;3.90;;
3149;SDS011;32503;47.748;8.960;2022-11-20T06:40:11;3.97;;;3.33;;
3149;SDS011;32503;47.748;8.960;2022-11-20T06:42:38;3.80;;;3.00;;
3149;SDS011;32503;47.748;8.960;2022-11-20T06:45:06;9.13;;;3.43;;
3149;SDS011;32503;47.748;8.960;2022-11-20T06:47:34;4.57;;;3.53;;
3149;SDS011;32503;47.748;8.960;2022-11-20T06:50:01;4.73;;;3.20;;
3149;SDS011;32503;47.748;8.960;2022-11-20T06:52:28;8.00;;;2.80;;
3149;SDS011;32503;47.748;8.960;2022-11-20T06:54:55;2.37;;;2.20;;
3149;SDS011;32503;47.748;8.960;2022-11-20T06:57:24;3.97;;;3.20;;
3149;SDS011;32503;47.748;8.960;2022-11-20T06:59:51;5.20;;;2.80;;
3149;SDS011;32503;47.748;8.960;2022-11-20T07:02:18;4.10;;;2.20;;
3149;SDS011;32503;47.748;8.960;2022-11-20T07:04:45;2.77;;;2.00;;
3149;SDS011;32503;47.748;8.960;2022-11-20T07:07:12;4.63;;;2.17;;
3149;SDS011;32503;47.748;8.960;2022-11-20T07:09:39;2.47;;;2.27;;
3149;SDS011;32503;47.748;8.960;2022-11-20T07:12:06;3.00;;;1.80;;
3149;SDS011;32503;47.748;8.960;2022-11-20T07:14:35;4.70;;;2.00;;
3149;SDS011;32503;47.748;8.960;2022-11-20T07:17:02;1.70;;;1.60;;
3149;SDS011;32503;47.748;8.960;2022-11-20T07:19:29;3.50;;;1.63;;
3149;SDS011;32503;47.748;8.960;2022-11-20T07:21:56;2.70;;;2.60;;
3149;SDS011;32503;47.748;8.960;2022-11-20T07:24:23;2.73;;;2.10;;
3149;SDS011;32503;47.748;8.960;2022-11-20T07:26:50;2.30;;;2.20;;
3149;SDS011;32503;47.748;8.960;2022-11-20T07:29:17;2.70;;;1.97;;
3149;SDS011;32503;47.748;8.960;2022-11-20T07:31:46;3.03;;;2.83;;
3149;SDS011;32503;47.748;8.960;2022-11-20T07:34:13;2.40;;;2.23;;
3149;SDS011;32503;47.748;8.960;2022-11-20T07:36:40;2.77;;;2.57;;
3149;SDS011;32503;47.748;8.960;2022-11-20T07:39:07;3.10;;;2.00;;
3149;SDS011;32503;47.748;8.960;2022-11-20T07:41:34;2.83;;;2.63;;
3149;SDS011;32503;47.748;8.960;2022-11-20T07:44:01;4.97;;;1.73;;
3149;SDS011;32503;47.748;8.960;2022-11-20T07:46:28;2.23;;;1.37;;
3149;SDS011;32503;47.748;8.960;2022-11-20T07:48:56;5.03;;;4.63;;
3149;SDS011;32503;47.748;8.960;2022-11-20T07:51:23;2.80;;;2.70;;
3149;SDS011;32503;47.748;8.960;2022-11-20T07:53:50;2.53;;;2.33;;
3149;SDS011;32503;47.748;8.960;2022-11-20T07:56:18;4.50;;;2.00;;
3149;SDS011;32503;47.748;8.960;2022-11-20T07:58:45;8.10;;;2.90;;
3149;SDS011;32503;47.748;8.960;2022-11-20T08:01:12;4.00;;;2.73;;
3149;SDS011;32503;47.748;8.960;2022-11-20T08:03:39;2.33;;;2.13;;
3149;SDS011;32503;47.748;8.960;2022-11-20T08:06:08;2.07;;;1.97;;
3149;SDS011;32503;47.748;8.960;2022-11-20T08:08:35;1.47;;;1.37;;
3149;SDS011;32503;47.748;8.960;2022-11-20T08:11:04;1.97;;;1.87;;
3149;SDS011;32503;47.748;8.960;2022-11-20T08:13:48;1.70;;;1.60;;
3149;SDS011;32503;47.748;8.960;2022-11-20T08:16:33;1.20;;;1.10;;
3149;SDS011;32503;47.748;8.960;2022-11-20T08:19:00;2.00;;;1.90;;
3149;SDS011;32503;47.748;8.960;2022-11-20T08:21:29;3.27;;;3.07;;
3149;SDS011;32503;47.748;8.960;2022-11-20T08:23:56;2.53;;;2.43;;
3149;SDS011;32503;47.748;8.960;2022-11-20T08:26:24;1.53;;;1.43;;
3149;SDS011;32503;47.748;8.960;2022-11-20T08:28:52;1.80;;;1.70;;
3149;SDS011;32503;47.748;8.960;2022-11-20T08:31:20;1.67;;;1.57;;
3149;SDS011;32503;47.748;8.960;2022-11-20T08:33:47;1.97;;;1.87;;
3149;SDS011;32503;47.748;8.960;2022-11-20T08:36:14;1.73;;;1.30;;
3149;SDS011;32503;47.748;8.960;2022-11-20T08:38:46;1.50;;;1.40;;
3149;SDS011;32503;47.748;8.960;2022-11-20T08:41:14;2.07;;;1.97;;
3149;SDS011;32503;47.748;8.960;2022-11-20T08:43:51;2.10;;;1.90;;
3149;SDS011;32503;47.748;8.960;2022-11-20T08:46:21;2.53;;;2.33;;
3149;SDS011;32503;47.748;8.960;2022-11-20T08:48:49;2.90;;;2.70;;
3149;SDS011;32503;47.748;8.960;2022-11-20T08:51:16;2.40;;;2.30;;
3149;SDS011;32503;47.748;8.960;2022-11-20T08:53:45;1.60;;;1.50;;
3149;SDS011;32503;47.748;8.960;2022-11-20T08:56:13;2.00;;;1.47;;
3149;SDS011;32503;47.748;8.960;2022-11-20T08:58:40;1.37;;;1.27;;
3149;SDS011;32503;47.748;8.960;2022-11-20T09:01:07;1.30;;;1.20;;
3149;SDS011;32503;47.748;8.960;2022-11-20T09:03:34;1.60;;;1.50;;
3149;SDS011;32503;47.748;8.960;2022-11-20T09:06:02;2.30;;;2.07;;
3149;SDS011;32503;47.748;8.960;2022-11-20T09:08:31;1.80;;;1.70;;
3149;SDS011;32503;47.748;8.960;2022-11-20T09:11:02;1.93;;;1.83;;
3149;SDS011;32503;47.748;8.960;2022-11-20T09:13:29;2.00;;;1.80;;
3149;SDS011;32503;47.748;8.960;2022-11-20T09:15:58;1.93;;;1.83;;
3149;SDS011;32503;47.748;8.960;2022-11-20T09:18:27;3.83;;;1.50;;
3149;SDS011;32503;47.748;8.960;2022-11-20T09:20:56;2.13;;;2.03;;
3149;SDS011;32503;47.748;8.960;2022-11-20T09:23:24;2.47;;;2.27;;
3149;SDS011;32503;47.748;8.960;2022-11-20T09:25:51;2.60;;;2.40;;
3149;SDS011;32503;47.748;8.960;2022-11-20T09:28:21;3.57;;;3.00;;
3149;SDS011;32503;47.748;8.960;2022-11-20T09:30:48;3.53;;;3.20;;
3149;SDS011;32503;47.748;8.960;2022-11-20T09:33:15;2.03;;;1.83;;
3149;SDS011;32503;47.748;8.960;2022-11-20T09:35:43;3.60;;;3.40;;
3149;SDS011;32503;47.748;8.960;2022-11-20T09:38:10;3.20;;;2.90;;
3149;SDS011;32503;47.748;8.960;2022-11-20T09:40:39;2.93;;;2.47;;
3149;SDS011;32503;47.748;8.960;2022-11-20T09:43:12;1.80;;;1.70;;
3149;SDS011;32503;47.748;8.960;2022-11-20T09:45:50;1.77;;;1.67;;
3149;SDS011;32503;47.748;8.960;2022-11-20T09:51:24;2.30;;;2.20;;
3149;SDS011;32503;47.748;8.960;2022-11-20T09:54:07;2.17;;;2.00;;
3149;SDS011;32503;47.748;8.960;2022-11-20T09:56:42;3.40;;;2.10;;
3149;SDS011;32503;47.748;8.960;2022-11-20T09:59:20;1.70;;;1.60;;
3149;SDS011;32503;47.748;8.960;2022-11-20T10:01:58;1.70;;;1.60;;
3149;SDS011;32503;47.748;8.960;2022-11-20T10:04:27;2.03;;;1.93;;
3149;SDS011;32503;47.748;8.960;2022-11-20T10:07:00;1.90;;;1.80;;
3149;SDS011;32503;47.748;8.960;2022-11-20T10:09:34;1.90;;;1.80;;
3149;SDS011;32503;47.748;8.960;2022-11-20T10:12:11;3.63;;;2.73;;
3149;SDS011;32503;47.748;8.960;2022-11-20T10:20:48;2.17;;;2.00;;
3149;SDS011;32503;47.748;8.960;2022-11-20T10:23:29;1.83;;;1.73;;
3149;SDS011;32503;47.748;8.960;2022-11-20T10:26:21;1.73;;;1.63;;
3149;SDS011;32503;47.748;8.960;2022-11-20T10:29:06;3.27;;;1.70;;
3149;SDS011;32503;47.748;8.960;2022-11-20T10:31:39;1.80;;;1.70;;
3149;SDS011;32503;47.748;8.960;2022-11-20T10:34:14;2.47;;;2.27;;
3149;SDS011;32503;47.748;8.960;2022-11-20T10:36:49;2.20;;;2.00;;
3149;SDS011;32503;47.748;8.960;2022-11-20T10:39:24;1.77;;;1.67;;
3149;SDS011;32503;47.748;8.960;2022-11-20T10:42:00;1.63;;;1.53;;
3149;SDS011;32503;47.748;8.960;2022-11-20T10:44:28;4.50;;;2.10;;
3149;SDS011;32503;47.748;8.960;2022-11-20T10:47:14;1.37;;;1.27;;
3149;SDS011;32503;47.748;8.960;2022-11-20T10:49:45;3.47;;;2.90;;
3149;SDS011;32503;47.748;8.960;2022-11-20T10:55:01;1.50;;;1.40;;
3149;SDS011;32503;47.748;8.960;2022-11-20T10:57:45;1.40;;;1.13;;
3149;SDS011;32503;47.748;8.960;2022-11-20T11:00:21;1.40;;;1.30;;
3149;SDS011;32503;47.748;8.960;2022-11-20T11:02:49;2.20;;;1.40;;
3149;SDS011;32503;47.748;8.960;2022-11-20T11:05:22;1.43;;;1.33;;
3149;SDS011;32503;47.748;8.960;2022-11-20T11:07:58;1.80;;;1.20;;
3149;SDS011;32503;47.748;8.960;2022-11-20T11:10:27;1.50;;;1.40;;
3149;SDS011;32503;47.748;8.960;2022-11-20T11:13:01;1.37;;;1.27;;
3149;SDS011;32503;47.748;8.960;2022-11-20T11:15:29;1.50;;;1.40;;
3149;SDS011;32503;47.748;8.960;2022-11-20T11:18:04;1.17;;;1.07;;
3149;SDS011;32503;47.748;8.960;2022-11-20T11:20:35;1.60;;;1.50;;
3149;SDS011;32503;47.748;8.960;2022-11-20T11:23:03;1.70;;;1.60;;
3149;SDS011;32503;47.748;8.960;2022-11-20T11:25:31;1.47;;;1.37;;
3149;SDS011;32503;47.748;8.960;2022-11-20T11:28:00;1.40;;;1.17;;
3149;SDS011;32503;47.748;8.960;2022-11-20T11:30:30;1.30;;;1.20;;
3149;SDS011;32503;47.748;8.960;2022-11-20T11:33:10;1.70;;;1.60;;
3149;SDS011;32503;47.748;8.960;2022-11-20T11:35:46;1.27;;;1.17;;
3149;SDS011;32503;47.748;8.960;2022-11-20T11:38:19;1.20;;;1.10;;
3149;SDS011;32503;47.748;8.960;2022-11-20T11:40:53;1.10;;;1.00;;
3149;SDS011;32503;47.748;8.960;2022-11-20T11:43:21;1.40;;;1.30;;
3149;SDS011;32503;47.748;8.960;2022-11-20T11:46:14;1.23;;;1.10;;
3149;SDS011;32503;47.748;8.960;2022-11-20T11:48:57;1.23;;;1.10;;
3149;SDS011;32503;47.748;8.960;2022-11-20T11:51:28;1.03;;;0.97;;
3149;SDS011;32503;47.748;8.960;2022-11-20T11:54:03;1.50;;;1.37;;
3149;SDS011;32503;47.748;8.960;2022-11-20T11:56:44;1.50;;;1.37;;
3149;SDS011;32503;47.748;8.960;2022-11-20T11:59:12;1.53;;;1.43;;
3149;SDS011;32503;47.748;8.960;2022-11-20T12:01:50;1.30;;;1.20;;
3149;SDS011;32503;47.748;8.960;2022-11-20T12:04:23;1.27;;;0.93;;
3149;SDS011;32503;47.748;8.960;2022-11-20T12:07:10;1.53;;;1.13;;
3149;SDS011;32503;47.748;8.960;2022-11-20T12:09:46;1.20;;;1.10;;
3149;SDS011;32503;47.748;8.960;2022-11-20T12:12:20;3.73;;;1.20;;
3149;SDS011;32503;47.748;8.960;2022-11-20T12:14:53;1.67;;;1.40;;
3149;SDS011;32503;47.748;8.960;2022-11-20T12:17:22;1.83;;;1.43;;
3149;SDS011;32503;47.748;8.960;2022-11-20T12:19:50;2.40;;;1.70;;
3149;SDS011;32503;47.748;8.960;2022-11-20T12:22:21;1.90;;;1.80;;
3149;SDS011;32503;47.748;8.960;2022-11-20T12:24:59;1.33;;;1.23;;
3149;SDS011;32503;47.748;8.960;2022-11-20T12:27:43;1.57;;;1.10;;
3149;SDS011;32503;47.748;8.960;2022-11-20T12:30:51;1.40;;;1.30;;
3149;SDS011;32503;47.748;8.960;2022-11-20T12:33:45;1.47;;;1.37;;
3149;SDS011;32503;47.748;8.960;2022-11-20T12:36:31;1.67;;;1.53;;
3149;SDS011;32503;47.748;8.960;2022-11-20T12:39:15;1.40;;;1.30;;
3149;SDS011;32503;47.748;8.960;2022-11-20T12:41:59;1.23;;;1.13;;
3149;SDS011;32503;47.748;8.960;2022-11-20T12:45:14;1.30;;;1.20;;
3149;SDS011;32503;47.748;8.960;2022-11-20T12:48:38;1.30;;;1.20;;
3149;SDS011;32503;47.748;8.960;2022-11-20T12:51:47;1.57;;;1.00;;
3149;SDS011;32503;47.748;8.960;2022-11-20T12:54:53;1.10;;;1.00;;
3149;SDS011;32503;47.748;8.960;2022-11-20T12:57:41;2.80;;;1.27;;
3149;SDS011;32503;47.748;8.960;2022-11-20T13:00:17;1.87;;;0.90;;
3149;SDS011;32503;47.748;8.960;2022-11-20T13:06:12;1.23;;;1.13;;
3149;SDS011;32503;47.748;8.960;2022-11-20T13:08:43;1.17;;;1.07;;
3149;SDS011;32503;47.748;8.960;2022-11-20T13:11:20;2.33;;;2.20;;
3149;SDS011;32503;47.748;8.960;2022-11-20T13:14:07;1.40;;;1.30;;
3149;SDS011;32503;47.748;8.960;2022-11-20T13:16:45;1.23;;;1.07;;
3149;SDS011;32503;47.748;8.960;2022-11-20T13:19:18;1.60;;;1.50;;
3149;SDS011;32503;47.748;8.960;2022-11-20T13:21:46;1.40;;;1.30;;
3149;SDS011;32503;47.748;8.960;2022-11-20T13:24:23;1.00;;;0.90;;
3149;SDS011;32503;47.748;8.960;2022-11-20T13:27:04;2.93;;;1.17;;
3149;SDS011;32503;47.748;8.960;2022-11-20T13:29:46;1.50;;;1.10;;
3149;SDS011;32503;47.748;8.960;2022-11-20T13:32:26;1.03;;;0.97;;
3149;SDS011;32503;47.748;8.960;2022-11-20T13:34:57;1.10;;;1.00;;
3149;SDS011;32503;47.748;8.960;2022-11-20T13:37:27;1.30;;;1.17;;
3149;SDS011;32503;47.748;8.960;2022-11-20T13:40:19;1.13;;;1.03;;
3149;SDS011;32503;47.748;8.960;2022-11-20T13:42:56;3.80;;;1.30;;
3149;SDS011;32503;47.748;8.960;2022-11-20T13:45:54;0.97;;;0.90;;
3149;SDS011;32503;47.748;8.960;2022-11-20T13:48:26;1.30;;;1.20;;
3149;SDS011;32503;47.748;8.960;2022-11-20T13:51:05;1.07;;;1.07;;
3149;SDS011;32503;47.748;8.960;2022-11-20T13:53:58;1.17;;;1.03;;
3149;SDS011;32503;47.748;8.960;2022-11-20T13:56:48;5.33;;;1.20;;
3149;SDS011;32503;47.748;8.960;2022-11-20T13:59:32;1.80;;;1.17;;
3149;SDS011;32503;47.748;8.960;2022-11-20T14:02:16;0.83;;;0.83;;
3149;SDS011;32503;47.748;8.960;2022-11-20T14:04:47;1.00;;;1.00;;
3149;SDS011;32503;47.748;8.960;2022-11-20T14:07:17;1.00;;;1.00;;
3149;SDS011;32503;47.748;8.960;2022-11-20T14:09:51;0.80;;;0.80;;
3149;SDS011;32503;47.748;8.960;2022-11-20T14:12:21;1.00;;;0.90;;
3149;SDS011;32503;47.748;8.960;2022-11-20T14:14:55;1.40;;;1.30;;
3149;SDS011;32503;47.748;8.960;2022-11-20T14:17:23;0.90;;;0.90;;
3149;SDS011;32503;47.748;8.960;2022-11-20T14:19:57;1.00;;;0.90;;
3149;SDS011;32503;47.748;8.960;2022-11-20T14:22:28;0.90;;;0.90;;
3149;SDS011;32503;47.748;8.960;2022-11-20T14:25:02;1.00;;;0.90;;
3149;SDS011;32503;47.748;8.960;2022-11-20T14:27:33;0.97;;;0.97;;
3149;SDS011;32503;47.748;8.960;2022-11-20T14:30:05;1.13;;;1.03;;
3149;SDS011;32503;47.748;8.960;2022-11-20T14:32:40;0.87;;;0.87;;
3149;SDS011;32503;47.748;8.960;2022-11-20T14:35:09;1.77;;;1.17;;
3149;SDS011;32503;47.748;8.960;2022-11-20T14:37:44;1.03;;;0.90;;
3149;SDS011;32503;47.748;8.960;2022-11-20T14:42:59;1.20;;;1.10;;
3149;SDS011;32503;47.748;8.960;2022-11-20T14:45:27;1.43;;;1.33;;
3149;SDS011;32503;47.748;8.960;2022-11-20T14:47:55;1.20;;;0.97;;
3149;SDS011;32503;47.748;8.960;2022-11-20T14:50:24;1.50;;;1.40;;
3149;SDS011;32503;47.748;8.960;2022-11-20T14:52:54;2.00;;;1.23;;
3149;SDS011;32503;47.748;8.960;2022-11-20T14:55:27;1.17;;;1.07;;
3149;SDS011;32503;47.748;8.960;2022-11-20T14:57:57;1.20;;;0.97;;
3149;SDS011;32503;47.748;8.960;2022-11-20T15:00:28;4.13;;;1.10;;
3149;SDS011;32503;47.748;8.960;2022-11-20T15:02:57;0.87;;;0.87;;
3149;SDS011;32503;47.748;8.960;2022-11-20T15:05:25;1.93;;;1.40;;
3149;SDS011;32503;47.748;8.960;2022-11-20T15:08:11;1.10;;;1.00;;
3149;SDS011;32503;47.748;8.960;2022-11-20T15:10:44;2.07;;;1.30;;
3149;SDS011;32503;47.748;8.960;2022-11-20T15:13:15;1.10;;;1.10;;
3149;SDS011;32503;47.748;8.960;2022-11-20T15:15:54;1.07;;;0.97;;
3149;SDS011;32503;47.748;8.960;2022-11-20T15:18:24;1.20;;;1.10;;
3149;SDS011;32503;47.748;8.960;2022-11-20T15:20:56;1.37;;;1.27;;
3149;SDS011;32503;47.748;8.960;2022-11-20T15:23:26;1.50;;;1.40;;
3149;SDS011;32503;47.748;8.960;2022-11-20T15:25:54;1.00;;;1.00;;
3149;SDS011;32503;47.748;8.960;2022-11-20T15:28:23;1.10;;;1.00;;
3149;SDS011;32503;47.748;8.960;2022-11-20T15:30:58;1.20;;;1.10;;
3149;SDS011;32503;47.748;8.960;2022-11-20T15:33:25;2.03;;;1.77;;
3149;SDS011;32503;47.748;8.960;2022-11-20T15:35:53;2.37;;;1.40;;
3149;SDS011;32503;47.748;8.960;2022-11-20T15:38:20;1.10;;;1.00;;
3149;SDS011;32503;47.748;8.960;2022-11-20T15:40:47;1.60;;;1.50;;
3149;SDS011;32503;47.748;8.960;2022-11-20T15:43:14;1.77;;;1.67;;
3149;SDS011;32503;47.748;8.960;2022-11-20T15:45:42;2.10;;;1.90;;
3149;SDS011;32503;47.748;8.960;2022-11-20T15:48:14;2.10;;;1.90;;